Miles City, MT

3:59 PM MDT on October 23, 2014 (GMT -0600)
Wiley | Change Station
CLOSE
Current Station
Airport
Location: Miles City,
Elevation: 2628 ft
Nearby Weather Stations

Elev 2628 ft 46.43 °N, 105.88 °W | Updated 6 minutes ago

Clear
Clear
69 °F
Feels Like 69 °F
N
15
Wind Variable Wind from West

Today
High -- | Low -- °F
--% Chance of Precip.
Yesterday
High -- | Low -- °F
Precip. -- in
7:31 AM 6:02 PM
Waning Crescent, 0% visible
Pressure 29.82 in
Visibility 10.0 miles
Clouds Clear
Dew Point 33 °F
Humidity 26%
Rainfall 0.00 in
Snow Depth Not available.
UV 1 out of 12
Pollen 1.80 out of 12
Air Quality Not available.
Flu Activity No Activity
METAR KMLS 232153Z AUTO 27013KT 10SM CLR 21/01 A2982 RMK AO2 SLP096 T02060006

More Conditions Fewer Conditions

Pressure 29.82 in
Visibility 10.0 miles
Clouds Clear
Dew Point 33 °F
Humidity 26%
Rainfall 0.00 in
Snow Depth Not available.
UV 1 out of 12
Pollen 1.80 out of 12
Air Quality Not available.
Flu Activity No Activity
METAR KMLS 232153Z AUTO 27013KT 10SM CLR 21/01 A2982 RMK AO2 SLP096 T02060006

More Conditions Fewer Conditions

10-Day Weather Forecast

Almanac

Astronomy

Oct. 23, 2014 Rise Set
Actual Time 7:31 AM MDT 6:02 PM MDT
Civil Twilight 7:01 AM MDT 6:33 PM MDT
Nautical Twilight 6:25 AM MDT 7:08 PM MDT
Astronomical Twilight 5:51 AM MDT 7:43 PM MDT
Moon 7:13 AM MDT 6:05 PM MDT
Length of Visible Light 11h 32m
Length of Day
10h 30m
Tomorrow will be 3m 5s shorter.
Waning Crescent, 0% of the Moon is Illuminated
Today
Waning Crescent
Oct 30
First Quarter
Nov 6
Full
Nov 14
Last Quarter
Nov 22
New

Today's Extremes

State Highs State Lows

Community

WunderPhotos

Upload Photos

1,764,381 photos uploaded!

WunderBlogs® & News

Nearby

Snow Depth

Station Depth Elevation
Crystal Lake 1 in 6050 ft
Daisy Peak 0 in 7600 ft
Fisher Creek 1 in 9100 ft
South Fork Shields 0 in 8100 ft
Porcupine 0 in 6500 ft

Earthquake Activity

City Distance Mag. Time & Date
No recent earthquake activity has been reported nearby.
Minimum magnitude displayed is 2.5.

Coastal Water Temperatures

Place Temperature
No Stations Reporting

Nearby Weather Stations